sensor_id;sensor_type;location;lat;lon;timestamp;P1;durP1;ratioP1;P2;durP2;ratioP2
49412;SDS011;35493;50.276;9.372;2023-05-27T00:00:04;11.73;;;3.33;;
49412;SDS011;35493;50.276;9.372;2023-05-27T00:02:33;10.83;;;3.33;;
49412;SDS011;35493;50.276;9.372;2023-05-27T00:05:00;10.43;;;2.72;;
49412;SDS011;35493;50.276;9.372;2023-05-27T00:07:27;11.60;;;2.88;;
49412;SDS011;35493;50.276;9.372;2023-05-27T00:09:55;11.82;;;3.13;;
49412;SDS011;35493;50.276;9.372;2023-05-27T00:12:22;8.95;;;3.03;;
49412;SDS011;35493;50.276;9.372;2023-05-27T00:14:49;9.75;;;2.28;;
49412;SDS011;35493;50.276;9.372;2023-05-27T00:17:16;6.97;;;2.30;;
49412;SDS011;35493;50.276;9.372;2023-05-27T00:19:44;12.50;;;3.30;;
49412;SDS011;35493;50.276;9.372;2023-05-27T00:22:13;12.65;;;2.83;;
49412;SDS011;35493;50.276;9.372;2023-05-27T00:24:40;8.65;;;2.65;;
49412;SDS011;35493;50.276;9.372;2023-05-27T00:27:09;11.70;;;2.72;;
49412;SDS011;35493;50.276;9.372;2023-05-27T00:29:36;9.75;;;3.00;;
49412;SDS011;35493;50.276;9.372;2023-05-27T00:32:03;10.05;;;3.33;;
49412;SDS011;35493;50.276;9.372;2023-05-27T00:34:30;10.90;;;3.10;;
49412;SDS011;35493;50.276;9.372;2023-05-27T00:36:58;8.45;;;3.35;;
49412;SDS011;35493;50.276;9.372;2023-05-27T00:39:25;10.77;;;2.83;;
49412;SDS011;35493;50.276;9.372;2023-05-27T00:41:53;8.38;;;3.00;;
49412;SDS011;35493;50.276;9.372;2023-05-27T00:44:22;10.38;;;3.83;;
49412;SDS011;35493;50.276;9.372;2023-05-27T00:46:49;9.48;;;3.55;;
49412;SDS011;35493;50.276;9.372;2023-05-27T00:49:16;10.35;;;3.72;;
49412;SDS011;35493;50.276;9.372;2023-05-27T00:51:43;11.70;;;3.72;;
49412;SDS011;35493;50.276;9.372;2023-05-27T00:54:10;8.85;;;3.25;;
49412;SDS011;35493;50.276;9.372;2023-05-27T00:56:37;12.93;;;3.95;;
49412;SDS011;35493;50.276;9.372;2023-05-27T00:59:04;10.27;;;3.67;;
49412;SDS011;35493;50.276;9.372;2023-05-27T01:01:33;11.05;;;4.15;;
49412;SDS011;35493;50.276;9.372;2023-05-27T01:04:01;9.25;;;3.35;;
49412;SDS011;35493;50.276;9.372;2023-05-27T01:06:32;10.93;;;3.85;;
49412;SDS011;35493;50.276;9.372;2023-05-27T01:09:08;9.70;;;3.72;;
49412;SDS011;35493;50.276;9.372;2023-05-27T01:11:41;8.77;;;3.20;;
49412;SDS011;35493;50.276;9.372;2023-05-27T01:14:12;10.98;;;3.55;;
49412;SDS011;35493;50.276;9.372;2023-05-27T01:16:42;8.68;;;2.83;;
49412;SDS011;35493;50.276;9.372;2023-05-27T01:19:12;9.20;;;3.03;;
49412;SDS011;35493;50.276;9.372;2023-05-27T01:21:42;8.55;;;3.15;;
49412;SDS011;35493;50.276;9.372;2023-05-27T01:24:17;11.00;;;3.60;;
49412;SDS011;35493;50.276;9.372;2023-05-27T01:26:44;10.95;;;3.50;;
49412;SDS011;35493;50.276;9.372;2023-05-27T01:29:10;10.88;;;3.03;;
49412;SDS011;35493;50.276;9.372;2023-05-27T01:31:40;8.73;;;3.10;;
49412;SDS011;35493;50.276;9.372;2023-05-27T01:34:09;10.10;;;2.90;;
49412;SDS011;35493;50.276;9.372;2023-05-27T01:36:43;9.15;;;2.65;;
49412;SDS011;35493;50.276;9.372;2023-05-27T01:39:14;8.27;;;2.63;;
49412;SDS011;35493;50.276;9.372;2023-05-27T01:41:43;10.18;;;3.03;;
49412;SDS011;35493;50.276;9.372;2023-05-27T01:44:13;6.03;;;2.60;;
49412;SDS011;35493;50.276;9.372;2023-05-27T01:46:42;11.37;;;3.20;;
49412;SDS011;35493;50.276;9.372;2023-05-27T01:49:12;7.90;;;2.92;;
49412;SDS011;35493;50.276;9.372;2023-05-27T01:51:39;10.82;;;3.20;;
49412;SDS011;35493;50.276;9.372;2023-05-27T01:54:06;11.07;;;3.20;;
49412;SDS011;35493;50.276;9.372;2023-05-27T01:56:33;11.65;;;3.13;;
49412;SDS011;35493;50.276;9.372;2023-05-27T01:59:01;12.05;;;3.63;;
49412;SDS011;35493;50.276;9.372;2023-05-27T02:01:28;8.63;;;3.08;;
49412;SDS011;35493;50.276;9.372;2023-05-27T02:03:56;9.90;;;3.20;;
49412;SDS011;35493;50.276;9.372;2023-05-27T02:06:23;9.57;;;3.00;;
49412;SDS011;35493;50.276;9.372;2023-05-27T02:08:50;10.85;;;3.20;;
49412;SDS011;35493;50.276;9.372;2023-05-27T02:11:17;11.73;;;3.35;;
49412;SDS011;35493;50.276;9.372;2023-05-27T02:13:44;9.95;;;3.60;;
49412;SDS011;35493;50.276;9.372;2023-05-27T02:16:12;9.27;;;3.22;;
49412;SDS011;35493;50.276;9.372;2023-05-27T02:18:39;9.27;;;2.75;;
49412;SDS011;35493;50.276;9.372;2023-05-27T02:21:06;11.25;;;3.28;;
49412;SDS011;35493;50.276;9.372;2023-05-27T02:23:33;10.65;;;3.22;;
49412;SDS011;35493;50.276;9.372;2023-05-27T02:26:01;11.48;;;3.40;;
49412;SDS011;35493;50.276;9.372;2023-05-27T02:28:28;8.52;;;2.72;;
49412;SDS011;35493;50.276;9.372;2023-05-27T02:30:56;11.30;;;2.65;;
49412;SDS011;35493;50.276;9.372;2023-05-27T02:33:24;9.82;;;2.92;;
49412;SDS011;35493;50.276;9.372;2023-05-27T02:35:52;10.02;;;3.33;;
49412;SDS011;35493;50.276;9.372;2023-05-27T02:38:19;9.95;;;3.35;;
49412;SDS011;35493;50.276;9.372;2023-05-27T02:40:46;11.55;;;3.30;;
49412;SDS011;35493;50.276;9.372;2023-05-27T02:43:13;12.15;;;3.47;;
49412;SDS011;35493;50.276;9.372;2023-05-27T02:45:40;10.10;;;2.95;;
49412;SDS011;35493;50.276;9.372;2023-05-27T02:48:07;7.97;;;2.88;;
49412;SDS011;35493;50.276;9.372;2023-05-27T02:50:38;13.23;;;3.05;;
49412;SDS011;35493;50.276;9.372;2023-05-27T02:53:05;9.80;;;3.60;;
49412;SDS011;35493;50.276;9.372;2023-05-27T02:55:32;10.07;;;3.35;;
49412;SDS011;35493;50.276;9.372;2023-05-27T02:57:59;10.07;;;3.17;;
49412;SDS011;35493;50.276;9.372;2023-05-27T03:00:28;8.15;;;2.63;;
49412;SDS011;35493;50.276;9.372;2023-05-27T03:02:55;7.55;;;3.20;;
49412;SDS011;35493;50.276;9.372;2023-05-27T03:05:22;9.30;;;2.95;;
49412;SDS011;35493;50.276;9.372;2023-05-27T03:07:51;8.27;;;3.20;;
49412;SDS011;35493;50.276;9.372;2023-05-27T03:10:18;8.63;;;2.63;;
49412;SDS011;35493;50.276;9.372;2023-05-27T03:12:44;11.32;;;3.17;;
49412;SDS011;35493;50.276;9.372;2023-05-27T03:15:11;8.70;;;2.88;;
49412;SDS011;35493;50.276;9.372;2023-05-27T03:17:39;10.65;;;2.85;;
49412;SDS011;35493;50.276;9.372;2023-05-27T03:20:09;7.07;;;2.63;;
49412;SDS011;35493;50.276;9.372;2023-05-27T03:22:36;7.75;;;3.05;;
49412;SDS011;35493;50.276;9.372;2023-05-27T03:25:05;10.27;;;3.42;;
49412;SDS011;35493;50.276;9.372;2023-05-27T03:27:32;10.70;;;3.95;;
49412;SDS011;35493;50.276;9.372;2023-05-27T03:30:02;12.65;;;4.10;;
49412;SDS011;35493;50.276;9.372;2023-05-27T03:32:30;8.98;;;3.20;;
49412;SDS011;35493;50.276;9.372;2023-05-27T03:34:57;9.30;;;3.67;;
49412;SDS011;35493;50.276;9.372;2023-05-27T03:37:24;11.23;;;3.30;;
49412;SDS011;35493;50.276;9.372;2023-05-27T03:39:59;9.48;;;3.05;;
49412;SDS011;35493;50.276;9.372;2023-05-27T03:42:27;6.85;;;3.20;;
49412;SDS011;35493;50.276;9.372;2023-05-27T03:44:54;9.13;;;2.97;;
49412;SDS011;35493;50.276;9.372;2023-05-27T03:47:22;12.85;;;3.38;;
49412;SDS011;35493;50.276;9.372;2023-05-27T03:49:49;10.73;;;3.35;;
49412;SDS011;35493;50.276;9.372;2023-05-27T03:52:17;12.48;;;3.42;;
49412;SDS011;35493;50.276;9.372;2023-05-27T03:54:44;11.52;;;3.25;;
49412;SDS011;35493;50.276;9.372;2023-05-27T03:57:12;12.07;;;3.38;;
49412;SDS011;35493;50.276;9.372;2023-05-27T03:59:40;9.70;;;3.13;;
49412;SDS011;35493;50.276;9.372;2023-05-27T04:02:07;10.13;;;3.50;;
49412;SDS011;35493;50.276;9.372;2023-05-27T04:04:34;10.40;;;3.35;;
49412;SDS011;35493;50.276;9.372;2023-05-27T04:07:01;7.85;;;3.20;;
49412;SDS011;35493;50.276;9.372;2023-05-27T04:09:28;8.57;;;2.72;;
49412;SDS011;35493;50.276;9.372;2023-05-27T04:11:55;8.35;;;3.03;;
49412;SDS011;35493;50.276;9.372;2023-05-27T04:14:22;10.23;;;3.25;;
49412;SDS011;35493;50.276;9.372;2023-05-27T04:16:50;11.30;;;3.25;;
49412;SDS011;35493;50.276;9.372;2023-05-27T04:19:18;9.20;;;2.80;;
49412;SDS011;35493;50.276;9.372;2023-05-27T04:21:46;7.05;;;2.70;;
49412;SDS011;35493;50.276;9.372;2023-05-27T04:24:14;11.20;;;3.17;;
49412;SDS011;35493;50.276;9.372;2023-05-27T04:26:43;11.93;;;3.50;;
49412;SDS011;35493;50.276;9.372;2023-05-27T04:29:11;8.57;;;3.03;;
49412;SDS011;35493;50.276;9.372;2023-05-27T04:31:41;10.48;;;2.90;;
49412;SDS011;35493;50.276;9.372;2023-05-27T04:34:14;8.43;;;2.72;;
49412;SDS011;35493;50.276;9.372;2023-05-27T04:36:42;10.68;;;3.50;;
49412;SDS011;35493;50.276;9.372;2023-05-27T04:39:11;10.45;;;3.92;;
49412;SDS011;35493;50.276;9.372;2023-05-27T04:41:41;8.95;;;2.90;;
49412;SDS011;35493;50.276;9.372;2023-05-27T04:44:17;9.25;;;3.10;;
49412;SDS011;35493;50.276;9.372;2023-05-27T04:46:47;11.07;;;3.28;;
49412;SDS011;35493;50.276;9.372;2023-05-27T04:49:15;10.20;;;3.25;;
49412;SDS011;35493;50.276;9.372;2023-05-27T04:51:42;9.23;;;3.08;;
49412;SDS011;35493;50.276;9.372;2023-05-27T04:54:10;9.73;;;3.17;;
49412;SDS011;35493;50.276;9.372;2023-05-27T04:56:38;12.15;;;3.08;;
49412;SDS011;35493;50.276;9.372;2023-05-27T04:59:06;10.40;;;3.20;;
49412;SDS011;35493;50.276;9.372;2023-05-27T05:01:33;11.52;;;3.60;;
49412;SDS011;35493;50.276;9.372;2023-05-27T05:04:22;7.97;;;2.85;;
49412;SDS011;35493;50.276;9.372;2023-05-27T05:06:53;11.65;;;2.70;;
49412;SDS011;35493;50.276;9.372;2023-05-27T05:09:22;7.25;;;2.60;;
49412;SDS011;35493;50.276;9.372;2023-05-27T05:11:49;11.40;;;3.60;;
49412;SDS011;35493;50.276;9.372;2023-05-27T05:14:16;8.57;;;2.83;;
49412;SDS011;35493;50.276;9.372;2023-05-27T05:16:44;9.85;;;3.20;;
49412;SDS011;35493;50.276;9.372;2023-05-27T05:19:12;9.85;;;3.05;;
49412;SDS011;35493;50.276;9.372;2023-05-27T05:21:41;9.93;;;3.20;;
49412;SDS011;35493;50.276;9.372;2023-05-27T05:24:10;11.30;;;3.05;;
49412;SDS011;35493;50.276;9.372;2023-05-27T05:26:39;11.63;;;3.03;;
49412;SDS011;35493;50.276;9.372;2023-05-27T05:29:05;10.35;;;2.70;;
49412;SDS011;35493;50.276;9.372;2023-05-27T05:31:33;9.50;;;3.13;;
49412;SDS011;35493;50.276;9.372;2023-05-27T05:34:01;8.82;;;3.17;;
49412;SDS011;35493;50.276;9.372;2023-05-27T05:36:31;8.32;;;3.15;;
49412;SDS011;35493;50.276;9.372;2023-05-27T05:39:04;9.60;;;3.10;;
49412;SDS011;35493;50.276;9.372;2023-05-27T05:41:31;9.80;;;3.10;;
49412;SDS011;35493;50.276;9.372;2023-05-27T05:43:58;10.45;;;3.28;;
49412;SDS011;35493;50.276;9.372;2023-05-27T05:46:26;8.73;;;2.70;;
49412;SDS011;35493;50.276;9.372;2023-05-27T05:48:53;10.88;;;2.92;;
49412;SDS011;35493;50.276;9.372;2023-05-27T05:51:29;6.53;;;2.30;;
49412;SDS011;35493;50.276;9.372;2023-05-27T05:53:58;11.55;;;3.08;;
49412;SDS011;35493;50.276;9.372;2023-05-27T05:56:27;7.95;;;2.80;;
49412;SDS011;35493;50.276;9.372;2023-05-27T05:58:55;9.65;;;3.00;;
49412;SDS011;35493;50.276;9.372;2023-05-27T06:01:24;9.65;;;3.25;;
49412;SDS011;35493;50.276;9.372;2023-05-27T06:03:52;9.30;;;2.70;;
49412;SDS011;35493;50.276;9.372;2023-05-27T06:06:32;10.20;;;2.80;;
49412;SDS011;35493;50.276;9.372;2023-05-27T06:09:22;9.95;;;2.78;;
49412;SDS011;35493;50.276;9.372;2023-05-27T06:11:54;9.40;;;3.20;;
49412;SDS011;35493;50.276;9.372;2023-05-27T06:14:22;12.48;;;3.58;;
49412;SDS011;35493;50.276;9.372;2023-05-27T06:16:51;10.38;;;3.22;;
49412;SDS011;35493;50.276;9.372;2023-05-27T06:19:18;9.05;;;3.03;;
49412;SDS011;35493;50.276;9.372;2023-05-27T06:21:45;8.30;;;3.00;;
49412;SDS011;35493;50.276;9.372;2023-05-27T06:24:18;9.30;;;2.88;;
49412;SDS011;35493;50.276;9.372;2023-05-27T06:26:51;11.10;;;2.72;;
49412;SDS011;35493;50.276;9.372;2023-05-27T06:29:19;12.68;;;3.20;;
49412;SDS011;35493;50.276;9.372;2023-05-27T06:31:46;11.20;;;3.17;;
49412;SDS011;35493;50.276;9.372;2023-05-27T06:34:15;8.40;;;2.40;;
49412;SDS011;35493;50.276;9.372;2023-05-27T06:36:42;11.98;;;3.03;;
49412;SDS011;35493;50.276;9.372;2023-05-27T06:39:09;12.57;;;3.40;;
49412;SDS011;35493;50.276;9.372;2023-05-27T06:41:36;10.95;;;3.15;;
49412;SDS011;35493;50.276;9.372;2023-05-27T06:44:34;11.35;;;3.10;;
49412;SDS011;35493;50.276;9.372;2023-05-27T06:47:09;8.90;;;2.92;;
49412;SDS011;35493;50.276;9.372;2023-05-27T06:49:37;10.02;;;3.10;;
49412;SDS011;35493;50.276;9.372;2023-05-27T06:52:05;8.85;;;2.85;;
49412;SDS011;35493;50.276;9.372;2023-05-27T06:54:44;10.90;;;3.05;;
49412;SDS011;35493;50.276;9.372;2023-05-27T06:57:31;9.25;;;3.28;;
49412;SDS011;35493;50.276;9.372;2023-05-27T07:00:09;7.72;;;3.00;;
49412;SDS011;35493;50.276;9.372;2023-05-27T07:02:46;7.78;;;3.17;;
49412;SDS011;35493;50.276;9.372;2023-05-27T07:05:13;8.68;;;2.80;;
49412;SDS011;35493;50.276;9.372;2023-05-27T07:07:41;12.55;;;3.45;;
49412;SDS011;35493;50.276;9.372;2023-05-27T07:10:08;9.95;;;3.08;;
49412;SDS011;35493;50.276;9.372;2023-05-27T07:12:35;10.77;;;3.10;;
49412;SDS011;35493;50.276;9.372;2023-05-27T07:15:21;10.27;;;3.10;;
49412;SDS011;35493;50.276;9.372;2023-05-27T07:17:48;10.77;;;3.08;;
49412;SDS011;35493;50.276;9.372;2023-05-27T07:20:15;11.60;;;2.88;;
49412;SDS011;35493;50.276;9.372;2023-05-27T07:22:42;9.38;;;3.33;;
49412;SDS011;35493;50.276;9.372;2023-05-27T07:25:09;9.38;;;3.30;;
49412;SDS011;35493;50.276;9.372;2023-05-27T07:27:36;11.18;;;3.35;;
49412;SDS011;35493;50.276;9.372;2023-05-27T07:30:04;9.93;;;3.30;;
49412;SDS011;35493;50.276;9.372;2023-05-27T07:32:47;12.57;;;3.50;;
49412;SDS011;35493;50.276;9.372;2023-05-27T07:35:14;8.45;;;3.25;;
49412;SDS011;35493;50.276;9.372;2023-05-27T07:37:41;9.38;;;3.13;;
49412;SDS011;35493;50.276;9.372;2023-05-27T07:40:08;12.57;;;3.78;;
49412;SDS011;35493;50.276;9.372;2023-05-27T07:42:38;9.88;;;3.00;;
49412;SDS011;35493;50.276;9.372;2023-05-27T07:45:05;14.57;;;3.03;;
49412;SDS011;35493;50.276;9.372;2023-05-27T07:47:33;9.20;;;3.20;;
49412;SDS011;35493;50.276;9.372;2023-05-27T07:50:01;8.77;;;2.78;;
49412;SDS011;35493;50.276;9.372;2023-05-27T07:52:35;9.70;;;3.28;;
49412;SDS011;35493;50.276;9.372;2023-05-27T07:55:13;8.60;;;3.17;;
49412;SDS011;35493;50.276;9.372;2023-05-27T07:57:39;10.77;;;3.40;;
49412;SDS011;35493;50.276;9.372;2023-05-27T08:00:09;10.45;;;3.38;;
49412;SDS011;35493;50.276;9.372;2023-05-27T08:02:57;11.27;;;3.15;;
49412;SDS011;35493;50.276;9.372;2023-05-27T08:05:38;12.63;;;2.90;;
49412;SDS011;35493;50.276;9.372;2023-05-27T08:08:24;12.20;;;3.42;;
49412;SDS011;35493;50.276;9.372;2023-05-27T08:11:14;11.38;;;3.15;;
49412;SDS011;35493;50.276;9.372;2023-05-27T08:14:07;10.48;;;3.00;;
49412;SDS011;35493;50.276;9.372;2023-05-27T08:16:52;8.18;;;3.25;;
49412;SDS011;35493;50.276;9.372;2023-05-27T08:19:26;9.88;;;3.30;;
49412;SDS011;35493;50.276;9.372;2023-05-27T08:22:15;8.18;;;3.33;;
49412;SDS011;35493;50.276;9.372;2023-05-27T08:25:16;11.77;;;2.90;;
49412;SDS011;35493;50.276;9.372;2023-05-27T08:27:49;11.00;;;3.10;;
49412;SDS011;35493;50.276;9.372;2023-05-27T08:30:27;9.73;;;2.80;;
49412;SDS011;35493;50.276;9.372;2023-05-27T08:33:02;10.57;;;3.05;;
49412;SDS011;35493;50.276;9.372;2023-05-27T08:35:29;8.48;;;3.28;;
49412;SDS011;35493;50.276;9.372;2023-05-27T08:37:57;10.75;;;3.15;;
49412;SDS011;35493;50.276;9.372;2023-05-27T08:40:28;10.15;;;3.17;;
49412;SDS011;35493;50.276;9.372;2023-05-27T08:42:55;9.95;;;3.20;;
49412;SDS011;35493;50.276;9.372;2023-05-27T08:45:23;10.48;;;3.55;;
49412;SDS011;35493;50.276;9.372;2023-05-27T08:47:50;9.00;;;2.53;;
49412;SDS011;35493;50.276;9.372;2023-05-27T08:50:21;12.52;;;3.45;;
49412;SDS011;35493;50.276;9.372;2023-05-27T08:52:49;10.15;;;2.95;;
49412;SDS011;35493;50.276;9.372;2023-05-27T08:55:21;9.60;;;3.00;;
49412;SDS011;35493;50.276;9.372;2023-05-27T08:57:50;10.07;;;3.17;;
49412;SDS011;35493;50.276;9.372;2023-05-27T09:00:20;9.18;;;2.90;;
49412;SDS011;35493;50.276;9.372;2023-05-27T09:02:49;10.63;;;3.20;;
49412;SDS011;35493;50.276;9.372;2023-05-27T09:05:18;11.18;;;3.53;;
49412;SDS011;35493;50.276;9.372;2023-05-27T09:07:46;10.65;;;3.00;;
49412;SDS011;35493;50.276;9.372;2023-05-27T09:10:13;9.23;;;2.80;;
49412;SDS011;35493;50.276;9.372;2023-05-27T09:12:43;8.57;;;3.05;;
49412;SDS011;35493;50.276;9.372;2023-05-27T09:15:11;10.48;;;3.05;;
49412;SDS011;35493;50.276;9.372;2023-05-27T09:17:40;8.27;;;3.15;;
49412;SDS011;35493;50.276;9.372;2023-05-27T09:20:09;10.75;;;3.45;;
49412;SDS011;35493;50.276;9.372;2023-05-27T09:22:37;9.20;;;3.47;;
49412;SDS011;35493;50.276;9.372;2023-05-27T09:25:05;8.45;;;3.28;;
49412;SDS011;35493;50.276;9.372;2023-05-27T09:27:33;8.60;;;3.05;;
49412;SDS011;35493;50.276;9.372;2023-05-27T09:30:07;12.45;;;3.33;;
49412;SDS011;35493;50.276;9.372;2023-05-27T09:32:35;11.55;;;3.50;;
49412;SDS011;35493;50.276;9.372;2023-05-27T09:35:02;9.70;;;3.30;;
49412;SDS011;35493;50.276;9.372;2023-05-27T09:37:32;10.77;;;3.33;;
49412;SDS011;35493;50.276;9.372;2023-05-27T09:40:00;12.38;;;3.45;;
49412;SDS011;35493;50.276;9.372;2023-05-27T09:42:38;8.43;;;2.85;;
49412;SDS011;35493;50.276;9.372;2023-05-27T09:45:08;6.70;;;2.83;;
49412;SDS011;35493;50.276;9.372;2023-05-27T09:47:37;8.30;;;3.15;;
49412;SDS011;35493;50.276;9.372;2023-05-27T09:50:07;8.50;;;2.78;;
49412;SDS011;35493;50.276;9.372;2023-05-27T09:52:36;10.57;;;3.35;;
49412;SDS011;35493;50.276;9.372;2023-05-27T09:55:06;10.50;;;3.40;;
49412;SDS011;35493;50.276;9.372;2023-05-27T09:57:34;14.30;;;4.80;;
49412;SDS011;35493;50.276;9.372;2023-05-27T10:00:02;9.85;;;3.60;;
49412;SDS011;35493;50.276;9.372;2023-05-27T10:02:38;11.40;;;3.55;;
49412;SDS011;35493;50.276;9.372;2023-05-27T10:05:07;9.63;;;4.13;;
49412;SDS011;35493;50.276;9.372;2023-05-27T10:07:36;11.05;;;3.92;;
49412;SDS011;35493;50.276;9.372;2023-05-27T10:10:04;8.53;;;3.67;;
49412;SDS011;35493;50.276;9.372;2023-05-27T10:15:00;9.43;;;3.38;;
49412;SDS011;35493;50.276;9.372;2023-05-27T10:17:27;9.70;;;3.28;;
49412;SDS011;35493;50.276;9.372;2023-05-27T10:19:56;9.68;;;3.72;;
49412;SDS011;35493;50.276;9.372;2023-05-27T10:22:23;7.80;;;3.00;;
49412;SDS011;35493;50.276;9.372;2023-05-27T10:24:50;8.73;;;2.90;;
49412;SDS011;35493;50.276;9.372;2023-05-27T10:27:18;9.70;;;3.00;;
49412;SDS011;35493;50.276;9.372;2023-05-27T10:29:56;9.73;;;3.33;;
49412;SDS011;35493;50.276;9.372;2023-05-27T10:32:23;8.57;;;2.97;;
49412;SDS011;35493;50.276;9.372;2023-05-27T10:34:51;11.52;;;3.42;;
49412;SDS011;35493;50.276;9.372;2023-05-27T10:37:22;8.25;;;2.97;;
49412;SDS011;35493;50.276;9.372;2023-05-27T10:39:53;8.82;;;2.83;;
49412;SDS011;35493;50.276;9.372;2023-05-27T10:42:21;8.52;;;3.30;;
49412;SDS011;35493;50.276;9.372;2023-05-27T10:44:48;9.55;;;3.05;;
49412;SDS011;35493;50.276;9.372;2023-05-27T10:47:15;8.25;;;2.75;;
49412;SDS011;35493;50.276;9.372;2023-05-27T10:49:45;10.90;;;2.70;;
49412;SDS011;35493;50.276;9.372;2023-05-27T10:52:14;9.93;;;3.15;;
49412;SDS011;35493;50.276;9.372;2023-05-27T10:57:12;9.13;;;2.58;;
49412;SDS011;35493;50.276;9.372;2023-05-27T10:59:39;9.95;;;3.17;;
49412;SDS011;35493;50.276;9.372;2023-05-27T11:02:11;8.18;;;3.10;;
49412;SDS011;35493;50.276;9.372;2023-05-27T11:04:38;7.80;;;3.03;;
49412;SDS011;35493;50.276;9.372;2023-05-27T11:07:05;7.82;;;3.15;;
49412;SDS011;35493;50.276;9.372;2023-05-27T11:09:42;8.57;;;3.25;;
49412;SDS011;35493;50.276;9.372;2023-05-27T11:12:12;7.50;;;2.78;;
49412;SDS011;35493;50.276;9.372;2023-05-27T11:14:41;9.48;;;3.28;;
49412;SDS011;35493;50.276;9.372;2023-05-27T11:17:09;7.85;;;3.50;;
49412;SDS011;35493;50.276;9.372;2023-05-27T11:19:38;7.75;;;3.50;;
49412;SDS011;35493;50.276;9.372;2023-05-27T11:22:06;9.60;;;3.00;;
49412;SDS011;35493;50.276;9.372;2023-05-27T11:24:34;9.13;;;3.17;;
49412;SDS011;35493;50.276;9.372;2023-05-27T11:27:08;7.55;;;3.17;;
49412;SDS011;35493;50.276;9.372;2023-05-27T11:29:36;8.73;;;3.38;;
49412;SDS011;35493;50.276;9.372;2023-05-27T11:32:03;7.78;;;2.78;;
49412;SDS011;35493;50.276;9.372;2023-05-27T11:34:33;8.45;;;3.10;;
49412;SDS011;35493;50.276;9.372;2023-05-27T11:37:01;7.55;;;3.25;;
49412;SDS011;35493;50.276;9.372;2023-05-27T11:39:29;8.25;;;2.88;;
49412;SDS011;35493;50.276;9.372;2023-05-27T11:41:56;9.38;;;3.25;;
49412;SDS011;35493;50.276;9.372;2023-05-27T11:44:25;7.43;;;2.90;;
49412;SDS011;35493;50.276;9.372;2023-05-27T11:46:57;7.75;;;3.00;;
49412;SDS011;35493;50.276;9.372;2023-05-27T11:49:26;8.07;;;3.05;;
49412;SDS011;35493;50.276;9.372;2023-05-27T11:51:55;8.53;;;2.73;;
49412;SDS011;35493;50.276;9.372;2023-05-27T11:54:23;6.15;;;2.55;;
49412;SDS011;35493;50.276;9.372;2023-05-27T11:56:52;7.97;;;2.70;;
49412;SDS011;35493;50.276;9.372;2023-05-27T11:59:20;8.75;;;2.88;;
49412;SDS011;35493;50.276;9.372;2023-05-27T12:01:49;8.35;;;3.05;;
49412;SDS011;35493;50.276;9.372;2023-05-27T12:04:19;6.85;;;2.78;;
49412;SDS011;35493;50.276;9.372;2023-05-27T12:06:46;7.50;;;3.08;;
49412;SDS011;35493;50.276;9.372;2023-05-27T12:09:13;9.75;;;3.60;;
49412;SDS011;35493;50.276;9.372;2023-05-27T12:11:40;6.20;;;2.90;;
49412;SDS011;35493;50.276;9.372;2023-05-27T12:14:07;8.85;;;3.13;;
49412;SDS011;35493;50.276;9.372;2023-05-27T12:16:34;10.52;;;3.08;;
49412;SDS011;35493;50.276;9.372;2023-05-27T12:19:02;7.85;;;2.95;;
49412;SDS011;35493;50.276;9.372;2023-05-27T12:21:30;6.97;;;3.05;;
49412;SDS011;35493;50.276;9.372;2023-05-27T12:23:57;8.40;;;2.90;;
49412;SDS011;35493;50.276;9.372;2023-05-27T12:26:24;6.85;;;2.58;;
49412;SDS011;35493;50.276;9.372;2023-05-27T12:28:51;8.10;;;3.25;;
49412;SDS011;35493;50.276;9.372;2023-05-27T12:31:18;7.60;;;2.88;;
49412;SDS011;35493;50.276;9.372;2023-05-27T12:33:45;10.13;;;5.78;;
49412;SDS011;35493;50.276;9.372;2023-05-27T12:36:14;14.68;;;7.18;;
49412;SDS011;35493;50.276;9.372;2023-05-27T12:38:41;9.55;;;5.55;;
49412;SDS011;35493;50.276;9.372;2023-05-27T12:41:08;9.63;;;3.88;;
49412;SDS011;35493;50.276;9.372;2023-05-27T12:43:35;8.50;;;3.40;;
49412;SDS011;35493;50.276;9.372;2023-05-27T12:46:02;5.78;;;3.22;;
49412;SDS011;35493;50.276;9.372;2023-05-27T12:48:29;8.48;;;3.53;;
49412;SDS011;35493;50.276;9.372;2023-05-27T12:50:56;7.93;;;3.20;;
49412;SDS011;35493;50.276;9.372;2023-05-27T12:53:24;6.80;;;3.08;;
49412;SDS011;35493;50.276;9.372;2023-05-27T12:55:51;9.48;;;3.38;;
49412;SDS011;35493;50.276;9.372;2023-05-27T12:58:21;8.65;;;3.60;;
49412;SDS011;35493;50.276;9.372;2023-05-27T13:00:48;8.65;;;4.20;;
49412;SDS011;35493;50.276;9.372;2023-05-27T13:03:15;6.45;;;4.05;;
49412;SDS011;35493;50.276;9.372;2023-05-27T13:05:42;9.30;;;5.80;;
49412;SDS011;35493;50.276;9.372;2023-05-27T13:08:09;10.18;;;6.07;;
49412;SDS011;35493;50.276;9.372;2023-05-27T13:10:38;7.50;;;5.03;;
49412;SDS011;35493;50.276;9.372;2023-05-27T13:15:32;8.30;;;4.40;;
49412;SDS011;35493;50.276;9.372;2023-05-27T13:18:00;8.43;;;4.15;;
49412;SDS011;35493;50.276;9.372;2023-05-27T13:20:28;6.20;;;3.53;;
49412;SDS011;35493;50.276;9.372;2023-05-27T13:22:55;6.60;;;3.30;;
49412;SDS011;35493;50.276;9.372;2023-05-27T13:25:25;7.60;;;2.92;;
49412;SDS011;35493;50.276;9.372;2023-05-27T13:27:54;8.70;;;3.25;;
49412;SDS011;35493;50.276;9.372;2023-05-27T13:30:22;6.65;;;2.90;;
49412;SDS011;35493;50.276;9.372;2023-05-27T13:32:50;6.90;;;2.80;;
49412;SDS011;35493;50.276;9.372;2023-05-27T13:35:17;8.45;;;3.20;;
49412;SDS011;35493;50.276;9.372;2023-05-27T13:37:44;6.63;;;2.78;;
49412;SDS011;35493;50.276;9.372;2023-05-27T13:40:12;7.53;;;2.65;;
49412;SDS011;35493;50.276;9.372;2023-05-27T13:42:39;6.05;;;2.78;;
49412;SDS011;35493;50.276;9.372;2023-05-27T13:45:08;5.35;;;2.55;;
49412;SDS011;35493;50.276;9.372;2023-05-27T13:47:36;5.60;;;2.80;;
49412;SDS011;35493;50.276;9.372;2023-05-27T13:50:06;6.75;;;2.97;;
49412;SDS011;35493;50.276;9.372;2023-05-27T13:52:33;6.68;;;2.85;;
49412;SDS011;35493;50.276;9.372;2023-05-27T13:55:01;6.47;;;2.65;;
49412;SDS011;35493;50.276;9.372;2023-05-27T13:57:28;6.18;;;2.25;;
49412;SDS011;35493;50.276;9.372;2023-05-27T13:59:55;9.80;;;4.65;;
49412;SDS011;35493;50.276;9.372;2023-05-27T14:02:23;13.40;;;7.75;;
49412;SDS011;35493;50.276;9.372;2023-05-27T14:04:50;9.13;;;5.38;;
49412;SDS011;35493;50.276;9.372;2023-05-27T14:07:17;8.43;;;4.10;;
49412;SDS011;35493;50.276;9.372;2023-05-27T14:09:44;8.75;;;4.03;;
49412;SDS011;35493;50.276;9.372;2023-05-27T14:12:12;7.15;;;3.15;;
49412;SDS011;35493;50.276;9.372;2023-05-27T14:14:39;8.63;;;3.22;;
49412;SDS011;35493;50.276;9.372;2023-05-27T14:17:06;6.72;;;2.65;;
49412;SDS011;35493;50.276;9.372;2023-05-27T14:19:34;7.93;;;3.00;;
49412;SDS011;35493;50.276;9.372;2023-05-27T14:22:02;6.00;;;2.60;;
49412;SDS011;35493;50.276;9.372;2023-05-27T14:24:32;8.65;;;3.20;;
49412;SDS011;35493;50.276;9.372;2023-05-27T14:26:59;7.03;;;2.42;;
49412;SDS011;35493;50.276;9.372;2023-05-27T14:29:26;5.13;;;2.50;;
49412;SDS011;35493;50.276;9.372;2023-05-27T14:31:53;7.03;;;2.85;;
49412;SDS011;35493;50.276;9.372;2023-05-27T14:34:20;6.28;;;2.60;;
49412;SDS011;35493;50.276;9.372;2023-05-27T14:36:48;7.32;;;2.83;;
49412;SDS011;35493;50.276;9.372;2023-05-27T14:39:15;10.27;;;2.47;;
49412;SDS011;35493;50.276;9.372;2023-05-27T14:41:42;4.88;;;2.47;;
49412;SDS011;35493;50.276;9.372;2023-05-27T14:44:09;5.40;;;2.55;;
49412;SDS011;35493;50.276;9.372;2023-05-27T14:46:37;5.22;;;2.25;;
49412;SDS011;35493;50.276;9.372;2023-05-27T14:49:04;6.07;;;2.80;;
49412;SDS011;35493;50.276;9.372;2023-05-27T14:51:31;7.30;;;3.42;;
49412;SDS011;35493;50.276;9.372;2023-05-27T14:53:59;7.85;;;3.25;;
49412;SDS011;35493;50.276;9.372;2023-05-27T14:56:26;6.88;;;2.97;;
49412;SDS011;35493;50.276;9.372;2023-05-27T14:58:53;6.10;;;3.00;;
49412;SDS011;35493;50.276;9.372;2023-05-27T15:01:20;6.97;;;3.30;;